Time;durP1;ratioP1;P1;durP2;ratioP2;P2;SDS_P1;SDS_P2;PMS_P1;PMS_P2;Temp;Humidity;BMP_temperature;BMP_pressure;BME280_temperature;BME280_humidity;BME280_pressure;Samples;Min_cycle;Max_cycle;Signal;HPM_P1;HPM_P2
2022/08/07 00:00:27;;;;;;;0.73;0.73;;;;;;;;;;5035705;28;20056;-74
2022/08/07 00:02:54;;;;;;;0.22;0.22;;;;;;;;;;5035532;28;20041;-73
2022/08/07 00:05:20;;;;;;;0.20;0.20;;;;;;;;;;5051210;28;20368;-74
2022/08/07 00:07:46;;;;;;;0.20;0.20;;;;;;;;;;5050381;28;20025;-74
2022/08/07 00:10:12;;;;;;;0.30;0.30;;;;;;;;;;5034742;28;20033;-73
2022/08/07 00:12:38;;;;;;;0.30;0.30;;;;;;;;;;5033760;28;20034;-74
2022/08/07 00:15:04;;;;;;;0.20;0.20;;;;;;;;;;5035575;28;20481;-73
2022/08/07 00:17:30;;;;;;;0.35;0.35;;;;;;;;;;5035419;28;20074;-74
2022/08/07 00:19:56;;;;;;;0.50;0.50;;;;;;;;;;5050708;28;20457;-73
2022/08/07 00:22:21;;;;;;;2.05;0.85;;;;;;;;;;5034651;28;20033;-74
2022/08/07 00:24:47;;;;;;;0.20;0.20;;;;;;;;;;5033974;28;20079;-74
2022/08/07 00:27:12;;;;;;;0.55;0.55;;;;;;;;;;5035157;28;20068;-73
2022/08/07 00:29:38;;;;;;;0.38;0.38;;;;;;;;;;5033890;28;20076;-73
2022/08/07 00:32:04;;;;;;;0.20;0.20;;;;;;;;;;5035161;28;20029;-74
2022/08/07 00:34:30;;;;;;;0.20;0.20;;;;;;;;;;5050457;28;20034;-73
2022/08/07 00:36:56;;;;;;;0.30;0.30;;;;;;;;;;5034996;28;20508;-73
2022/08/07 00:39:22;;;;;;;0.93;0.93;;;;;;;;;;5016789;28;20104;-74
2022/08/07 00:41:49;;;;;;;0.22;0.22;;;;;;;;;;5049865;28;20462;-73
2022/08/07 00:44:15;;;;;;;0.30;0.30;;;;;;;;;;5033887;28;20047;-73
2022/08/07 00:46:41;;;;;;;0.20;0.20;;;;;;;;;;5034676;28;20540;-73
2022/08/07 00:49:08;;;;;;;0.30;0.30;;;;;;;;;;5034885;28;20088;-73
2022/08/07 00:51:34;;;;;;;1.00;1.00;;;;;;;;;;5033149;28;20108;-73
2022/08/07 00:54:00;;;;;;;0.20;0.20;;;;;;;;;;5033245;28;20195;-73
2022/08/07 00:56:28;;;;;;;0.30;0.30;;;;;;;;;;5034669;28;20488;-73
2022/08/07 00:58:55;;;;;;;1.45;0.98;;;;;;;;;;5016897;28;20024;-73
2022/08/07 01:01:21;;;;;;;0.85;0.80;;;;;;;;;;5033618;28;20108;-74
2022/08/07 01:03:47;;;;;;;0.15;0.15;;;;;;;;;;5049999;28;20025;-74
2022/08/07 01:06:13;;;;;;;0.30;0.30;;;;;;;;;;5033247;28;20057;-74
2022/08/07 01:08:39;;;;;;;0.20;0.20;;;;;;;;;;5033582;28;20064;-74
2022/08/07 01:11:08;;;;;;;0.20;0.20;;;;;;;;;;5034694;28;20053;-73
2022/08/07 01:13:34;;;;;;;0.20;0.20;;;;;;;;;;5034509;28;20416;-72
2022/08/07 01:16:01;;;;;;;0.40;0.40;;;;;;;;;;5033001;28;20040;-73
2022/08/07 01:18:28;;;;;;;0.20;0.20;;;;;;;;;;5034226;28;20029;-74
2022/08/07 01:21:07;;;;;;;0.30;0.30;;;;;;;;;;5033213;28;20037;-73
2022/08/07 01:23:33;;;;;;;0.20;0.20;;;;;;;;;;5044900;28;20029;-73
2022/08/07 01:25:59;;;;;;;0.20;0.20;;;;;;;;;;5048515;28;20090;-73
2022/08/07 01:28:25;;;;;;;0.22;0.22;;;;;;;;;;5054028;28;20111;-73
2022/08/07 01:30:52;;;;;;;0.30;0.30;;;;;;;;;;5054349;28;20025;-74
2022/08/07 01:33:19;;;;;;;0.30;0.30;;;;;;;;;;5053766;28;20502;-72
2022/08/07 01:35:45;;;;;;;0.20;0.20;;;;;;;;;;5036199;28;20121;-73
2022/08/07 01:38:11;;;;;;;0.20;0.20;;;;;;;;;;5054042;28;20484;-70
2022/08/07 01:40:37;;;;;;;0.30;0.30;;;;;;;;;;5049641;28;20496;-74
2022/08/07 01:43:03;;;;;;;0.25;0.25;;;;;;;;;;5052537;28;20045;-74
2022/08/07 01:45:32;;;;;;;0.28;0.28;;;;;;;;;;5053617;28;20035;-74
2022/08/07 01:48:00;;;;;;;0.25;0.25;;;;;;;;;;5042464;28;20032;-72
2022/08/07 01:50:26;;;;;;;0.47;0.47;;;;;;;;;;5050230;28;20021;-72
2022/08/07 01:52:52;;;;;;;0.20;0.20;;;;;;;;;;5051665;28;20021;-71
2022/08/07 01:55:22;;;;;;;0.20;0.20;;;;;;;;;;5050216;28;20488;-74
2022/08/07 01:57:48;;;;;;;0.22;0.22;;;;;;;;;;5033903;28;20095;-72
2022/08/07 02:00:14;;;;;;;0.20;0.20;;;;;;;;;;5050761;28;20036;-73
2022/08/07 02:02:44;;;;;;;0.20;0.20;;;;;;;;;;5051924;28;20497;-73
2022/08/07 02:05:14;;;;;;;0.30;0.30;;;;;;;;;;5052229;28;20029;-72
2022/08/07 02:07:49;;;;;;;0.30;0.30;;;;;;;;;;5052027;28;20403;-72
2022/08/07 02:10:20;;;;;;;0.30;0.30;;;;;;;;;;5035899;28;20120;-71
2022/08/07 02:12:52;;;;;;;0.20;0.20;;;;;;;;;;5036027;28;20025;-72
2022/08/07 02:15:32;;;;;;;0.30;0.30;;;;;;;;;;5051859;28;20040;-72
2022/08/07 02:18:07;;;;;;;0.30;0.30;;;;;;;;;;5052208;28;20060;-72
2022/08/07 02:20:41;;;;;;;0.20;0.20;;;;;;;;;;5052498;28;20380;-73
2022/08/07 02:23:07;;;;;;;0.20;0.20;;;;;;;;;;5053109;28;20043;-73
2022/08/07 02:25:35;;;;;;;0.20;0.20;;;;;;;;;;5051706;28;20017;-72
2022/08/07 02:28:01;;;;;;;1.03;1.03;;;;;;;;;;5031739;28;20064;-71
2022/08/07 02:30:27;;;;;;;0.20;0.20;;;;;;;;;;5015863;28;20037;-71
2022/08/07 02:32:55;;;;;;;0.20;0.20;;;;;;;;;;5015779;28;20056;-71
2022/08/07 02:35:21;;;;;;;0.50;0.50;;;;;;;;;;5015599;28;20485;-72
2022/08/07 02:37:52;;;;;;;0.25;0.25;;;;;;;;;;5015657;28;20061;-72
2022/08/07 02:40:17;;;;;;;0.20;0.20;;;;;;;;;;5015183;28;20164;-73
2022/08/07 02:42:45;;;;;;;0.20;0.20;;;;;;;;;;5019527;28;20501;-72
2022/08/07 02:45:12;;;;;;;3.30;3.15;;;;;;;;;;5051803;28;20112;-72
2022/08/07 02:47:38;;;;;;;0.50;0.50;;;;;;;;;;5052748;28;20053;-72
2022/08/07 02:50:10;;;;;;;0.20;0.20;;;;;;;;;;5052014;28;20067;-72
2022/08/07 02:52:38;;;;;;;0.20;0.20;;;;;;;;;;5051962;28;20127;-73
2022/08/07 02:55:06;;;;;;;0.20;0.20;;;;;;;;;;5053311;28;20495;-72
2022/08/07 02:57:33;;;;;;;0.20;0.20;;;;;;;;;;5053579;28;20048;-72
2022/08/07 02:59:59;;;;;;;0.20;0.20;;;;;;;;;;5052425;28;20476;-72
2022/08/07 03:02:25;;;;;;;0.10;0.10;;;;;;;;;;5049850;28;20043;-72
2022/08/07 03:04:52;;;;;;;0.20;0.20;;;;;;;;;;5049765;28;20439;-73
2022/08/07 03:07:18;;;;;;;0.20;0.20;;;;;;;;;;5048348;28;20117;-71
2022/08/07 03:09:45;;;;;;;0.35;0.35;;;;;;;;;;5046939;28;20033;-75
2022/08/07 03:12:12;;;;;;;0.30;0.30;;;;;;;;;;5046200;28;20040;-73
2022/08/07 03:14:38;;;;;;;0.20;0.20;;;;;;;;;;5046174;28;20448;-74
2022/08/07 03:17:04;;;;;;;0.20;0.20;;;;;;;;;;5030744;28;20032;-72
2022/08/07 03:19:30;;;;;;;0.20;0.20;;;;;;;;;;5048016;28;20029;-72
2022/08/07 03:21:58;;;;;;;0.20;0.20;;;;;;;;;;5048199;28;20044;-73
2022/08/07 03:24:23;;;;;;;0.20;0.20;;;;;;;;;;5034772;28;20438;-71
2022/08/07 03:26:50;;;;;;;0.32;0.32;;;;;;;;;;5052501;28;20472;-72
2022/08/07 03:29:17;;;;;;;0.20;0.20;;;;;;;;;;5052214;28;20041;-74
2022/08/07 03:31:45;;;;;;;0.20;0.20;;;;;;;;;;5051638;28;20037;-74
2022/08/07 03:34:13;;;;;;;0.40;0.40;;;;;;;;;;5051825;28;20032;-72
2022/08/07 03:36:39;;;;;;;0.20;0.20;;;;;;;;;;5052883;28;20045;-74
2022/08/07 03:39:07;;;;;;;0.20;0.20;;;;;;;;;;5035816;28;20412;-72
2022/08/07 03:41:34;;;;;;;0.30;0.30;;;;;;;;;;5035220;28;20033;-75
2022/08/07 03:44:00;;;;;;;0.20;0.20;;;;;;;;;;5034621;28;20044;-71
2022/08/07 03:46:29;;;;;;;;;;;;;;;;;;5051752;28;20032;-76
2022/08/07 03:48:54;;;;;;;0.10;0.10;;;;;;;;;;5052411;28;19904;-71
2022/08/07 03:51:20;;;;;;;0.20;0.20;;;;;;;;;;5050777;28;20310;-72
2022/08/07 03:53:47;;;;;;;0.77;0.77;;;;;;;;;;5034909;28;20025;-71
2022/08/07 03:56:18;;;;;;;0.20;0.20;;;;;;;;;;5034462;28;20388;-74
2022/08/07 03:58:44;;;;;;;0.20;0.20;;;;;;;;;;5034111;28;20420;-71
2022/08/07 04:01:10;;;;;;;0.20;0.20;;;;;;;;;;5050711;28;20037;-72
2022/08/07 04:03:37;;;;;;;0.20;0.20;;;;;;;;;;5050739;28;20385;-72
2022/08/07 04:06:06;;;;;;;0.30;0.30;;;;;;;;;;5050721;28;20033;-72
2022/08/07 04:08:32;;;;;;;0.20;0.20;;;;;;;;;;5050932;28;20381;-72
2022/08/07 04:10:58;;;;;;;0.20;0.20;;;;;;;;;;5050270;28;20020;-73
2022/08/07 04:13:25;;;;;;;0.60;0.60;;;;;;;;;;5050878;28;20061;-78
2022/08/07 04:15:51;;;;;;;0.20;0.20;;;;;;;;;;5049490;28;20025;-72
2022/08/07 04:18:18;;;;;;;0.20;0.20;;;;;;;;;;5050164;28;20029;-70
2022/08/07 04:20:45;;;;;;;0.30;0.30;;;;;;;;;;5049911;28;20044;-70
2022/08/07 04:23:12;;;;;;;0.20;0.20;;;;;;;;;;5033352;28;20153;-72
2022/08/07 04:25:39;;;;;;;0.20;0.20;;;;;;;;;;5049572;28;20095;-76
2022/08/07 04:28:05;;;;;;;0.17;0.17;;;;;;;;;;5049801;28;20021;-72
2022/08/07 04:30:31;;;;;;;0.30;0.30;;;;;;;;;;5033432;28;20039;-72
2022/08/07 04:33:06;;;;;;;0.20;0.20;;;;;;;;;;5049825;28;20087;-73
2022/08/07 04:35:32;;;;;;;0.20;0.20;;;;;;;;;;5033244;28;20152;-72
2022/08/07 04:37:57;;;;;;;0.20;0.20;;;;;;;;;;5033147;28;20116;-72
2022/08/07 04:40:23;;;;;;;0.20;0.20;;;;;;;;;;5049510;28;20830;-73
2022/08/07 04:42:49;;;;;;;0.20;0.20;;;;;;;;;;5050138;28;20158;-73
2022/08/07 04:45:16;;;;;;;0.20;0.20;;;;;;;;;;5050140;28;20131;-70
2022/08/07 04:47:47;;;;;;;0.88;0.88;;;;;;;;;;5033582;28;20036;-73
2022/08/07 04:50:32;;;;;;;1.13;0.75;;;;;;;;;;5033803;28;20033;-73
2022/08/07 04:53:24;;;;;;;0.35;0.35;;;;;;;;;;5049889;28;20033;-72
2022/08/07 04:55:52;;;;;;;0.43;0.43;;;;;;;;;;5033961;28;20032;-72
2022/08/07 04:58:35;;;;;;;0.28;0.28;;;;;;;;;;5050107;28;20496;-72
2022/08/07 05:01:16;;;;;;;1.02;1.02;;;;;;;;;;5034555;28;20424;-73
2022/08/07 05:03:56;;;;;;;0.20;0.20;;;;;;;;;;5050788;28;20049;-78
2022/08/07 05:06:36;;;;;;;1.20;1.02;;;;;;;;;;5033312;28;20060;-74
2022/08/07 05:09:21;;;;;;;0.40;0.40;;;;;;;;;;5048432;28;20413;-74
2022/08/07 05:11:49;;;;;;;8.98;1.85;;;;;;;;;;5050347;28;20041;-73
2022/08/07 05:14:19;;;;;;;0.20;0.20;;;;;;;;;;5050519;28;20059;-74
2022/08/07 05:16:48;;;;;;;0.50;0.43;;;;;;;;;;5048908;28;20017;-73
2022/08/07 05:19:18;;;;;;;1.08;0.82;;;;;;;;;;5048830;28;20468;-73
2022/08/07 05:21:47;;;;;;;2.15;1.58;;;;;;;;;;5032096;28;20102;-74
2022/08/07 05:24:16;;;;;;;0.40;0.40;;;;;;;;;;5050394;28;20028;-73
2022/08/07 05:26:42;;;;;;;0.45;0.45;;;;;;;;;;5049369;28;20031;-73
2022/08/07 05:29:09;;;;;;;0.75;0.75;;;;;;;;;;5050406;28;20083;-72
2022/08/07 05:31:39;;;;;;;0.20;0.20;;;;;;;;;;5048881;28;20029;-72
2022/08/07 05:34:09;;;;;;;0.20;0.20;;;;;;;;;;5048830;28;20040;-76
2022/08/07 05:36:38;;;;;;;0.30;0.30;;;;;;;;;;5032451;28;20068;-72
2022/08/07 05:39:07;;;;;;;0.20;0.20;;;;;;;;;;5048628;28;20029;-72
2022/08/07 05:41:33;;;;;;;0.20;0.20;;;;;;;;;;5031973;28;20175;-73
2022/08/07 05:43:59;;;;;;;0.30;0.30;;;;;;;;;;5048554;28;20063;-73
2022/08/07 05:46:25;;;;;;;0.20;0.20;;;;;;;;;;5047499;28;20087;-73
2022/08/07 05:48:52;;;;;;;0.40;0.40;;;;;;;;;;5050403;28;20102;-73
2022/08/07 05:51:19;;;;;;;0.30;0.30;;;;;;;;;;5049592;28;20056;-72
2022/08/07 05:53:45;;;;;;;0.22;0.22;;;;;;;;;;5048849;28;20032;-72
2022/08/07 05:56:12;;;;;;;0.30;0.30;;;;;;;;;;5049555;28;20029;-72
2022/08/07 05:58:45;;;;;;;0.30;0.30;;;;;;;;;;5048899;28;20021;-72
2022/08/07 06:01:14;;;;;;;0.30;0.30;;;;;;;;;;5047711;28;20090;-72
2022/08/07 06:03:46;;;;;;;0.30;0.30;;;;;;;;;;5047999;28;20068;-72
2022/08/07 06:06:12;;;;;;;;;;;;;;;;;;5048592;28;20033;-70
2022/08/07 06:08:40;;;;;;;0.40;0.40;;;;;;;;;;5047433;28;19916;-75
2022/08/07 06:11:07;;;;;;;0.43;0.43;;;;;;;;;;5029332;28;20021;-73
2022/08/07 06:13:34;;;;;;;0.28;0.28;;;;;;;;;;5046057;28;20036;-74
2022/08/07 06:16:00;;;;;;;0.30;0.30;;;;;;;;;;5029716;28;20068;-74
2022/08/07 06:18:28;;;;;;;0.30;0.30;;;;;;;;;;5046263;28;20048;-73
2022/08/07 06:20:55;;;;;;;0.30;0.30;;;;;;;;;;5046861;28;20025;-76
2022/08/07 06:23:21;;;;;;;0.40;0.40;;;;;;;;;;5048211;28;20041;-72
2022/08/07 06:25:47;;;;;;;0.88;0.88;;;;;;;;;;5048072;28;20295;-72
2022/08/07 06:28:13;;;;;;;0.30;0.30;;;;;;;;;;5047744;28;20021;-72
2022/08/07 06:30:39;;;;;;;0.40;0.40;;;;;;;;;;5031609;28;20029;-75
2022/08/07 06:33:09;;;;;;;0.40;0.40;;;;;;;;;;5048146;28;20071;-72
2022/08/07 06:35:35;;;;;;;0.30;0.30;;;;;;;;;;5048033;28;20053;-72
2022/08/07 06:38:05;;;;;;;0.30;0.30;;;;;;;;;;5047944;28;20049;-72
2022/08/07 06:40:38;;;;;;;0.50;0.50;;;;;;;;;;5031466;28;20802;-72
2022/08/07 06:43:05;;;;;;;2.10;1.90;;;;;;;;;;5047398;28;20037;-72
2022/08/07 06:46:03;;;;;;;0.80;0.65;;;;;;;;;;5035885;28;20399;-72
2022/08/07 06:48:28;;;;;;;0.90;0.90;;;;;;;;;;5049344;28;20040;-73
2022/08/07 06:50:58;;;;;;;0.47;0.47;;;;;;;;;;5050036;28;20021;-71
2022/08/07 06:53:25;;;;;;;0.30;0.30;;;;;;;;;;5047490;28;20052;-72
2022/08/07 06:55:51;;;;;;;0.35;0.35;;;;;;;;;;5047474;28;20037;-72
2022/08/07 06:58:18;;;;;;;0.40;0.40;;;;;;;;;;5031680;28;20021;-72
2022/08/07 07:00:53;;;;;;;0.32;0.32;;;;;;;;;;5050418;28;20117;-73
2022/08/07 07:03:21;;;;;;;0.70;0.70;;;;;;;;;;5051704;28;20040;-74
2022/08/07 07:05:47;;;;;;;0.80;0.80;;;;;;;;;;5050865;28;20029;-73
2022/08/07 07:08:13;;;;;;;0.40;0.40;;;;;;;;;;5058652;28;20024;-75
2022/08/07 07:10:39;;;;;;;0.50;0.50;;;;;;;;;;5059973;28;20115;-72
2022/08/07 07:13:05;;;;;;;0.65;0.65;;;;;;;;;;5057076;28;20024;-76
2022/08/07 07:15:32;;;;;;;0.30;0.30;;;;;;;;;;5061689;28;20070;-72
2022/08/07 07:18:10;;;;;;;0.60;0.60;;;;;;;;;;5073118;28;20086;-73
2022/08/07 07:20:37;;;;;;;0.40;0.40;;;;;;;;;;5072628;28;20025;-73
2022/08/07 07:23:03;;;;;;;0.43;0.43;;;;;;;;;;5053269;28;20038;-77
2022/08/07 07:25:29;;;;;;;0.70;0.70;;;;;;;;;;5047284;28;20025;-73
2022/08/07 07:27:57;;;;;;;0.40;0.40;;;;;;;;;;5051627;28;20036;-72
2022/08/07 07:30:24;;;;;;;0.30;0.30;;;;;;;;;;5035256;28;20074;-73
2022/08/07 07:32:52;;;;;;;0.50;0.50;;;;;;;;;;5051601;28;20045;-74
2022/08/07 07:35:18;;;;;;;0.30;0.30;;;;;;;;;;5051602;28;20016;-73
2022/08/07 07:37:45;;;;;;;0.40;0.40;;;;;;;;;;5051605;28;20334;-72
2022/08/07 07:40:16;;;;;;;0.50;0.50;;;;;;;;;;5052284;28;20041;-73
2022/08/07 07:42:43;;;;;;;0.50;0.50;;;;;;;;;;5035026;28;20048;-72
2022/08/07 07:45:09;;;;;;;0.45;0.45;;;;;;;;;;5034104;28;20044;-73
2022/08/07 07:47:35;;;;;;;0.55;0.55;;;;;;;;;;5052351;28;20028;-75
2022/08/07 07:50:01;;;;;;;0.55;0.55;;;;;;;;;;5053267;28;20040;-73
2022/08/07 07:52:29;;;;;;;0.60;0.60;;;;;;;;;;5053021;28;20419;-73
2022/08/07 07:54:56;;;;;;;0.47;0.47;;;;;;;;;;5030980;28;20053;-76
2022/08/07 07:57:23;;;;;;;0.50;0.50;;;;;;;;;;5031659;28;20143;-72
2022/08/07 07:59:49;;;;;;;0.40;0.40;;;;;;;;;;5015285;28;20032;-73
2022/08/07 08:02:15;;;;;;;0.60;0.60;;;;;;;;;;5015338;28;20071;-75
2022/08/07 08:04:42;;;;;;;0.40;0.40;;;;;;;;;;5032677;28;20033;-71
2022/08/07 08:07:08;;;;;;;0.50;0.50;;;;;;;;;;5032323;28;20103;-71
2022/08/07 08:09:36;;;;;;;0.60;0.60;;;;;;;;;;5031968;28;20021;-79
2022/08/07 08:12:02;;;;;;;0.38;0.38;;;;;;;;;;5042342;28;20037;-73
2022/08/07 08:14:28;;;;;;;0.70;0.70;;;;;;;;;;5051243;28;20128;-73
2022/08/07 08:16:55;;;;;;;0.40;0.40;;;;;;;;;;5033213;28;20112;-74
2022/08/07 08:19:24;;;;;;;0.50;0.50;;;;;;;;;;5053143;28;20040;-73
2022/08/07 08:27:35;;;;;;;0.50;0.50;;;;;;;;;;5049121;28;20064;-74
2022/08/07 08:30:06;;;;;;;0.47;0.47;;;;;;;;;;5050866;28;20033;-72
2022/08/07 08:32:35;;;;;;;0.68;0.68;;;;;;;;;;5050669;28;20029;-74
2022/08/07 08:35:02;;;;;;;0.57;0.57;;;;;;;;;;5051081;28;20021;-72
2022/08/07 08:37:29;;;;;;;0.50;0.50;;;;;;;;;;5050808;28;20049;-72
2022/08/07 08:39:55;;;;;;;0.55;0.55;;;;;;;;;;5050846;28;20040;-73
2022/08/07 08:42:20;;;;;;;0.50;0.50;;;;;;;;;;5033880;28;20055;-72
2022/08/07 08:45:09;;;;;;;0.40;0.40;;;;;;;;;;5049950;28;20194;-80
2022/08/07 08:47:51;;;;;;;0.40;0.40;;;;;;;;;;5050092;28;20393;-73
2022/08/07 08:50:20;;;;;;;0.50;0.50;;;;;;;;;;5051085;28;20032;-73
2022/08/07 08:52:50;;;;;;;0.70;0.70;;;;;;;;;;5033537;28;20476;-71
2022/08/07 08:55:18;;;;;;;1.13;1.02;;;;;;;;;;5050833;28;20365;-71
2022/08/07 08:58:16;;;;;;;0.50;0.50;;;;;;;;;;5050884;28;20170;-72
2022/08/07 09:00:47;;;;;;;0.50;0.50;;;;;;;;;;5028004;28;20543;-77
2022/08/07 09:03:38;;;;;;;0.40;0.40;;;;;;;;;;5048631;28;20037;-72
2022/08/07 09:06:08;;;;;;;1.52;0.85;;;;;;;;;;5041425;28;20106;-76
2022/08/07 09:08:54;;;;;;;1.08;0.98;;;;;;;;;;5041143;28;20052;-75
2022/08/07 09:11:22;;;;;;;0.50;0.50;;;;;;;;;;5048979;28;20115;-73
2022/08/07 09:13:56;;;;;;;1.40;1.30;;;;;;;;;;5049435;28;20029;-74
2022/08/07 09:16:22;;;;;;;1.92;1.67;;;;;;;;;;5044595;28;20025;-72
2022/08/07 09:18:54;;;;;;;2.65;2.17;;;;;;;;;;5046989;28;20431;-74
2022/08/07 09:21:42;;;;;;;0.80;0.68;;;;;;;;;;5041591;28;20025;-74
2022/08/07 09:24:20;;;;;;;0.40;0.40;;;;;;;;;;5028828;28;20125;-78
2022/08/07 09:26:55;;;;;;;4.18;1.27;;;;;;;;;;5046949;28;20029;-80
2022/08/07 09:29:39;;;;;;;0.40;0.40;;;;;;;;;;5046539;28;20519;-74
2022/08/07 09:32:19;;;;;;;1.75;1.30;;;;;;;;;;5047773;28;20036;-74
2022/08/07 09:34:53;;;;;;;0.50;0.50;;;;;;;;;;5046280;28;20036;-77
2022/08/07 09:37:35;;;;;;;1.27;1.15;;;;;;;;;;5046444;28;20048;-73
2022/08/07 09:40:07;;;;;;;0.68;0.68;;;;;;;;;;5046251;28;20400;-73
2022/08/07 09:42:41;;;;;;;0.35;0.35;;;;;;;;;;5046265;28;20025;-74
2022/08/07 09:45:06;;;;;;;0.73;0.70;;;;;;;;;;5046234;28;20372;-78
2022/08/07 09:47:51;;;;;;;1.08;0.98;;;;;;;;;;5046751;28;20031;-76
2022/08/07 09:50:32;;;;;;;0.50;0.50;;;;;;;;;;5048174;28;20033;-73
2022/08/07 09:53:01;;;;;;;4.78;0.77;;;;;;;;;;5049510;28;20094;-73
2022/08/07 09:55:33;;;;;;;1.67;1.27;;;;;;;;;;5033031;28;20041;-73
2022/08/07 09:58:01;;;;;;;2.25;1.38;;;;;;;;;;5050193;28;20025;-72
2022/08/07 10:00:31;;;;;;;1.77;1.33;;;;;;;;;;5050601;28;20044;-74
2022/08/07 10:03:08;;;;;;;1.10;0.80;;;;;;;;;;5049829;28;20124;-78
2022/08/07 10:05:46;;;;;;;2.08;1.90;;;;;;;;;;5049574;28;20503;-75
2022/08/07 10:08:18;;;;;;;1.20;0.98;;;;;;;;;;5032259;28;20025;-73
2022/08/07 10:10:49;;;;;;;5.05;1.15;;;;;;;;;;5049971;28;20098;-72
2022/08/07 10:13:15;;;;;;;2.45;1.88;;;;;;;;;;5049677;28;20106;-72
2022/08/07 10:15:59;;;;;;;1.33;1.23;;;;;;;;;;5049585;28;20060;-73
2022/08/07 10:18:33;;;;;;;0.60;0.60;;;;;;;;;;5049745;28;20084;-81
2022/08/07 10:20:58;;;;;;;0.93;0.93;;;;;;;;;;5031831;28;20037;-73
2022/08/07 10:23:41;;;;;;;1.13;0.65;;;;;;;;;;5049711;28;20143;-73
2022/08/07 10:26:25;;;;;;;3.17;1.35;;;;;;;;;;5047998;28;20090;-78
2022/08/07 10:28:57;;;;;;;0.60;0.60;;;;;;;;;;5049662;28;20033;-74
2022/08/07 10:31:37;;;;;;;3.05;1.40;;;;;;;;;;5050059;28;20527;-75
2022/08/07 10:34:05;;;;;;;1.10;1.00;;;;;;;;;;5049510;28;20397;-72
2022/08/07 10:36:39;;;;;;;2.92;1.08;;;;;;;;;;5031327;28;20543;-82
2022/08/07 10:39:23;;;;;;;6.53;1.60;;;;;;;;;;5048924;28;20033;-75
2022/08/07 10:42:09;;;;;;;3.45;1.42;;;;;;;;;;5047978;28;20389;-74
2022/08/07 10:44:55;;;;;;;2.35;1.95;;;;;;;;;;5030181;28;20068;-73
2022/08/07 10:47:30;;;;;;;1.83;1.50;;;;;;;;;;5049293;28;20060;-75
2022/08/07 10:50:03;;;;;;;1.55;1.20;;;;;;;;;;5049171;28;20404;-80
2022/08/07 10:52:52;;;;;;;5.05;1.73;;;;;;;;;;5031093;28;20120;-72
2022/08/07 10:55:23;;;;;;;0.85;0.85;;;;;;;;;;5043385;28;20563;-72
2022/08/07 10:57:58;;;;;;;0.73;0.73;;;;;;;;;;5030271;28;20032;-76
2022/08/07 11:00:28;;;;;;;1.67;1.50;;;;;;;;;;5048543;28;20483;-71
2022/08/07 11:03:09;;;;;;;4.20;1.35;;;;;;;;;;5049099;28;20435;-73
2022/08/07 11:05:53;;;;;;;1.20;0.85;;;;;;;;;;5049578;28;20112;-72
2022/08/07 11:08:41;;;;;;;0.50;0.50;;;;;;;;;;5048773;28;20466;-71
2022/08/07 11:11:07;;;;;;;;;;;;;;;;;;5048143;28;20025;-74
2022/08/07 11:13:35;;;;;;;0.40;0.40;;;;;;;;;;5049306;28;19916;-73
2022/08/07 11:16:04;;;;;;;0.82;0.70;;;;;;;;;;5046806;28;20302;-72
2022/08/07 11:18:36;;;;;;;1.13;1.13;;;;;;;;;;5057072;28;20029;-78
2022/08/07 11:21:18;;;;;;;0.80;0.80;;;;;;;;;;5055121;28;20104;-74
2022/08/07 11:23:53;;;;;;;0.70;0.70;;;;;;;;;;5033694;28;20053;-84
2022/08/07 11:26:30;;;;;;;0.60;0.60;;;;;;;;;;5050574;28;20029;-75
2022/08/07 11:28:56;;;;;;;1.13;1.02;;;;;;;;;;5049308;28;20040;-78
2022/08/07 11:31:24;;;;;;;1.85;1.23;;;;;;;;;;5049892;28;20029;-73
2022/08/07 11:33:56;;;;;;;2.33;1.48;;;;;;;;;;5048467;28;20036;-73
2022/08/07 11:36:27;;;;;;;3.15;1.13;;;;;;;;;;5049170;28;20025;-74
2022/08/07 11:39:08;;;;;;;1.35;1.23;;;;;;;;;;5049779;28;20025;-75
2022/08/07 11:41:54;;;;;;;0.70;0.70;;;;;;;;;;5048136;28;20112;-73
2022/08/07 11:44:22;;;;;;;2.40;1.50;;;;;;;;;;5050953;28;20047;-74
2022/08/07 11:47:03;;;;;;;0.50;0.50;;;;;;;;;;5052132;28;20119;-73
2022/08/07 11:49:48;;;;;;;1.60;1.25;;;;;;;;;;5035509;28;20033;-74
2022/08/07 11:52:34;;;;;;;0.88;0.77;;;;;;;;;;5051693;28;20067;-78
2022/08/07 11:55:06;;;;;;;3.17;1.30;;;;;;;;;;5031195;28;20385;-80
2022/08/07 11:57:51;;;;;;;4.38;1.42;;;;;;;;;;5046383;28;20044;-75
2022/08/07 12:00:19;;;;;;;1.38;1.20;;;;;;;;;;5053300;28;20037;-73
2022/08/07 12:02:47;;;;;;;0.77;0.77;;;;;;;;;;5051540;28;20127;-73
2022/08/07 12:05:22;;;;;;;1.60;1.15;;;;;;;;;;5049524;28;20037;-74
2022/08/07 12:07:53;;;;;;;2.40;1.48;;;;;;;;;;5054854;28;20404;-72
2022/08/07 12:10:37;;;;;;;1.92;1.52;;;;;;;;;;5052139;28;20025;-73
2022/08/07 12:13:07;;;;;;;2.80;1.30;;;;;;;;;;5048960;28;20029;-74
2022/08/07 12:15:36;;;;;;;1.50;0.98;;;;;;;;;;5032496;28;20033;-73
2022/08/07 12:18:13;;;;;;;1.23;1.13;;;;;;;;;;5050244;28;20025;-72
2022/08/07 12:20:41;;;;;;;4.25;2.13;;;;;;;;;;5050610;28;20032;-75
2022/08/07 12:23:13;;;;;;;5.22;2.05;;;;;;;;;;5049652;28;20037;-74
2022/08/07 12:25:54;;;;;;;2.25;0.88;;;;;;;;;;5049929;28;20017;-76
2022/08/07 12:28:27;;;;;;;2.08;1.70;;;;;;;;;;5050047;28;20033;-73
2022/08/07 12:30:55;;;;;;;0.75;0.75;;;;;;;;;;5051102;28;20021;-77
2022/08/07 12:33:24;;;;;;;5.18;1.55;;;;;;;;;;5034215;28;20059;-73
2022/08/07 12:35:50;;;;;;;1.30;1.13;;;;;;;;;;5033848;28;20033;-74
2022/08/07 12:38:17;;;;;;;4.40;1.70;;;;;;;;;;5033178;28;20080;-73
2022/08/07 12:40:44;;;;;;;25.05;2.17;;;;;;;;;;5033427;28;20039;-73
2022/08/07 12:43:12;;;;;;;4.10;1.83;;;;;;;;;;5049883;28;20090;-73
2022/08/07 12:45:37;;;;;;;3.55;1.75;;;;;;;;;;5033261;28;20128;-72
2022/08/07 12:48:10;;;;;;;2.15;1.75;;;;;;;;;;5051503;28;20103;-73
2022/08/07 12:50:38;;;;;;;1.35;1.20;;;;;;;;;;5050295;28;20037;-73
2022/08/07 12:53:10;;;;;;;0.38;0.38;;;;;;;;;;5033234;28;20029;-73
2022/08/07 12:55:45;;;;;;;0.50;0.50;;;;;;;;;;5050949;28;20025;-74
2022/08/07 12:58:13;;;;;;;1.88;1.10;;;;;;;;;;5051373;28;20060;-72
2022/08/07 13:00:53;;;;;;;5.40;1.48;;;;;;;;;;5051040;28;20029;-74
2022/08/07 13:03:29;;;;;;;0.50;0.50;;;;;;;;;;5050615;28;20079;-73
2022/08/07 13:06:01;;;;;;;1.25;1.15;;;;;;;;;;5033529;28;20147;-75
2022/08/07 13:08:26;;;;;;;6.50;1.92;;;;;;;;;;5050864;28;20481;-74
2022/08/07 13:11:04;;;;;;;1.73;1.30;;;;;;;;;;5051040;28;20053;-73
2022/08/07 13:13:50;;;;;;;2.78;1.27;;;;;;;;;;5050890;28;20480;-73
2022/08/07 13:16:36;;;;;;;1.67;1.55;;;;;;;;;;5050928;28;20032;-74
2022/08/07 13:19:07;;;;;;;0.57;0.57;;;;;;;;;;5050529;28;20064;-72
2022/08/07 13:21:37;;;;;;;1.42;1.33;;;;;;;;;;5032829;28;20025;-72
2022/08/07 13:24:02;;;;;;;0.80;0.77;;;;;;;;;;5032670;28;20493;-73
2022/08/07 13:26:28;;;;;;;2.05;1.35;;;;;;;;;;5050274;28;20037;-73
2022/08/07 13:29:02;;;;;;;3.33;1.58;;;;;;;;;;5050253;28;20379;-73
2022/08/07 13:31:33;;;;;;;4.35;1.98;;;;;;;;;;5049244;28;20033;-76
2022/08/07 13:34:13;;;;;;;0.77;0.77;;;;;;;;;;5049536;28;20040;-73
2022/08/07 13:37:02;;;;;;;0.95;0.70;;;;;;;;;;5032004;28;20053;-73
2022/08/07 13:39:30;;;;;;;1.35;1.25;;;;;;;;;;5050312;28;20108;-72
2022/08/07 13:41:56;;;;;;;5.68;1.83;;;;;;;;;;5049069;28;20036;-74
2022/08/07 13:44:25;;;;;;;2.30;1.63;;;;;;;;;;5050204;28;20055;-73
2022/08/07 13:46:53;;;;;;;;;;;;;;;;;;5032544;28;20472;-75
2022/08/07 13:49:19;;;;;;;1.70;1.38;;;;;;;;;;5048485;28;19915;-72
2022/08/07 13:51:45;;;;;;;4.03;1.92;;;;;;;;;;5048511;28;20032;-76
2022/08/07 13:54:12;;;;;;;1.98;1.85;;;;;;;;;;5048897;28;20428;-77
2022/08/07 13:56:39;;;;;;;2.13;1.75;;;;;;;;;;5050261;28;20115;-74
2022/08/07 13:59:24;;;;;;;2.58;1.17;;;;;;;;;;5049629;28;20029;-75
2022/08/07 14:01:51;;;;;;;1.40;1.15;;;;;;;;;;5047588;28;20048;-74
2022/08/07 14:04:17;;;;;;;2.13;1.27;;;;;;;;;;5049749;28;20032;-74
2022/08/07 14:06:44;;;;;;;5.03;2.13;;;;;;;;;;5048208;28;20033;-74
2022/08/07 14:09:15;;;;;;;6.07;2.13;;;;;;;;;;5031830;28;20025;-73
2022/08/07 14:11:45;;;;;;;8.65;1.90;;;;;;;;;;5048263;28;20036;-74
2022/08/07 14:14:13;;;;;;;1.58;1.48;;;;;;;;;;5031896;28;20056;-73
2022/08/07 14:16:40;;;;;;;6.22;2.53;;;;;;;;;;5031477;28;20039;-74
2022/08/07 14:19:15;;;;;;;1.48;1.17;;;;;;;;;;5031842;28;20078;-73
2022/08/07 14:21:45;;;;;;;4.30;2.03;;;;;;;;;;5031928;28;20563;-74
2022/08/07 14:24:18;;;;;;;1.75;1.42;;;;;;;;;;5031482;28;20037;-74
2022/08/07 14:26:49;;;;;;;2.25;1.60;;;;;;;;;;5031707;28;20029;-73
2022/08/07 14:29:16;;;;;;;3.22;1.52;;;;;;;;;;5049107;28;20044;-74
2022/08/07 14:31:43;;;;;;;0.98;0.80;;;;;;;;;;5031772;28;20466;-73
2022/08/07 14:34:10;;;;;;;3.05;2.15;;;;;;;;;;5031343;28;20033;-72
2022/08/07 14:36:36;;;;;;;3.95;2.03;;;;;;;;;;5049473;28;20033;-73
2022/08/07 14:39:02;;;;;;;2.83;1.40;;;;;;;;;;5049179;28;20031;-74
2022/08/07 14:41:31;;;;;;;0.75;0.60;;;;;;;;;;5047879;28;20055;-74
2022/08/07 14:43:57;;;;;;;1.40;1.30;;;;;;;;;;5049476;28;20104;-74
2022/08/07 14:46:23;;;;;;;3.03;1.38;;;;;;;;;;5031976;28;20069;-73
2022/08/07 14:48:50;;;;;;;3.03;2.38;;;;;;;;;;5031697;28;20033;-72
2022/08/07 14:51:26;;;;;;;0.88;0.85;;;;;;;;;;5031037;28;20060;-73
2022/08/07 14:53:52;;;;;;;1.50;0.98;;;;;;;;;;5031297;28;20468;-73
2022/08/07 14:56:21;;;;;;;0.93;0.85;;;;;;;;;;5047708;28;20025;-72
2022/08/07 14:59:05;;;;;;;0.80;0.80;;;;;;;;;;5049690;28;20292;-74
2022/08/07 15:01:32;;;;;;;4.13;1.95;;;;;;;;;;5049105;28;20055;-74
2022/08/07 15:04:01;;;;;;;1.65;1.25;;;;;;;;;;5049028;28;20488;-73
2022/08/07 15:06:29;;;;;;;2.78;1.00;;;;;;;;;;5048005;28;20033;-74